Time;durP1;ratioP1;P1;durP2;ratioP2;P2;SDS_P1;SDS_P2;PMS_P1;PMS_P2;Temp;Humidity;BMP_temperature;BMP_pressure;BME280_temperature;BME280_humidity;BME280_pressure;Samples;Min_cycle;Max_cycle;Signal;HPM_P1;HPM_P2
2021/05/01 00:01:58;;;;;;;19.50;11.98;;;;;;;;;;6212927;22;20151;-92
2021/05/01 00:05:04;;;;;;;18.50;11.45;;;;;;;;;;6213980;23;20575;-92
2021/05/01 00:08:09;;;;;;;21.38;12.18;;;;;;;;;;6215100;23;20174;-91
2021/05/01 00:11:13;;;;;;;22.92;11.30;;;;;;;;;;6213521;22;20185;-93
2021/05/01 00:14:19;;;;;;;19.80;11.00;;;;;;;;;;6227998;23;20205;-90
2021/05/01 00:17:24;;;;;;;20.38;12.18;;;;;;;;;;6243477;23;20167;-91
2021/05/01 00:20:29;;;;;;;19.05;11.20;;;;;;;;;;6244364;22;20192;-93
2021/05/01 00:23:34;;;;;;;20.50;11.18;;;;;;;;;;6244535;23;20552;-92
2021/05/01 00:26:41;;;;;;;19.98;11.85;;;;;;;;;;6246377;22;20173;-93
2021/05/01 00:29:46;;;;;;;21.13;12.13;;;;;;;;;;6244773;22;20212;-91
2021/05/01 00:32:51;;;;;;;19.25;11.88;;;;;;;;;;6244727;23;20282;-91
2021/05/01 00:35:56;;;;;;;21.25;12.20;;;;;;;;;;6245233;22;20498;-92
2021/05/01 00:39:01;;;;;;;21.95;13.10;;;;;;;;;;6245973;22;20155;-92
2021/05/01 00:42:06;;;;;;;21.67;12.45;;;;;;;;;;6245837;22;20170;-91
2021/05/01 00:45:12;;;;;;;20.88;11.80;;;;;;;;;;6245308;23;20205;-93
2021/05/01 00:48:18;;;;;;;20.27;12.02;;;;;;;;;;6246475;23;20169;-89
2021/05/01 00:51:23;;;;;;;19.73;12.27;;;;;;;;;;6246711;22;20198;-91
2021/05/01 00:54:28;;;;;;;20.30;11.50;;;;;;;;;;6248199;23;20170;-91
2021/05/01 00:57:32;;;;;;;20.98;11.43;;;;;;;;;;6247132;23;20190;-92
2021/05/01 01:03:57;;;;;;;21.83;12.75;;;;;;;;;;6245444;23;20292;-92
2021/05/01 01:07:02;;;;;;;22.40;12.40;;;;;;;;;;6246537;22;20198;-91
2021/05/01 01:10:07;;;;;;;24.60;11.93;;;;;;;;;;6246596;23;20175;-90
2021/05/01 01:13:15;;;;;;;22.67;12.77;;;;;;;;;;6246238;23;20202;-91
2021/05/01 01:16:20;;;;;;;20.83;12.68;;;;;;;;;;6244385;23;20485;-91
2021/05/01 01:19:25;;;;;;;21.38;13.02;;;;;;;;;;6245560;22;20151;-91
2021/05/01 01:22:30;;;;;;;20.83;12.95;;;;;;;;;;6244549;22;20194;-92
2021/05/01 01:25:37;;;;;;;21.08;12.57;;;;;;;;;;6243442;23;20198;-93
2021/05/01 01:28:42;;;;;;;20.77;12.50;;;;;;;;;;6244533;23;20166;-90
2021/05/01 01:31:46;;;;;;;22.35;13.68;;;;;;;;;;6244375;23;20170;-92
2021/05/01 01:34:51;;;;;;;22.52;12.63;;;;;;;;;;6245469;23;20171;-91
2021/05/01 01:37:57;;;;;;;21.80;12.65;;;;;;;;;;6245396;23;20150;-90
2021/05/01 01:41:02;;;;;;;23.20;13.18;;;;;;;;;;6246805;23;20182;-91
2021/05/01 01:44:07;;;;;;;23.48;13.32;;;;;;;;;;6243542;23;20174;-91
2021/05/01 01:47:12;;;;;;;23.17;14.32;;;;;;;;;;6244419;23;20166;-92
2021/05/01 01:50:18;;;;;;;27.40;14.02;;;;;;;;;;6243621;23;20217;-90
2021/05/01 01:53:24;;;;;;;22.17;13.65;;;;;;;;;;6243926;22;20202;-90
2021/05/01 01:56:29;;;;;;;25.58;14.02;;;;;;;;;;6245003;23;20151;-90
2021/05/01 01:59:34;;;;;;;23.85;13.63;;;;;;;;;;6245573;22;20178;-91
2021/05/01 02:02:39;;;;;;;24.52;13.27;;;;;;;;;;6246243;23;20166;-92
2021/05/01 02:05:43;;;;;;;23.92;13.60;;;;;;;;;;6245497;23;20197;-91
2021/05/01 02:08:49;;;;;;;23.48;13.95;;;;;;;;;;6229489;23;20166;-90
2021/05/01 02:11:55;;;;;;;24.02;13.90;;;;;;;;;;6263998;23;20210;-91
2021/05/01 02:15:00;;;;;;;25.27;13.43;;;;;;;;;;6232355;23;20190;-93
2021/05/01 02:18:05;;;;;;;23.67;13.82;;;;;;;;;;6232676;23;20210;-91
2021/05/01 02:21:09;;;;;;;24.75;14.55;;;;;;;;;;6232162;23;20180;-90
2021/05/01 02:24:15;;;;;;;25.92;14.68;;;;;;;;;;6232109;23;20171;-92
2021/05/01 02:27:19;;;;;;;19.83;13.05;;;;;;;;;;6233570;23;20167;-93
2021/05/01 02:30:25;;;;;;;28.80;14.70;;;;;;;;;;6233700;23;20214;-91
2021/05/01 02:33:32;;;;;;;25.75;14.32;;;;;;;;;;6234956;22;20159;-92
2021/05/01 02:36:37;;;;;;;22.17;13.45;;;;;;;;;;6232664;22;20215;-90
2021/05/01 02:39:44;;;;;;;24.60;15.35;;;;;;;;;;6233194;22;20150;-91
2021/05/01 02:42:49;;;;;;;24.65;14.32;;;;;;;;;;6232038;22;20151;-91
2021/05/01 02:45:53;;;;;;;23.05;14.23;;;;;;;;;;6232546;23;20210;-91
2021/05/01 02:48:58;;;;;;;31.90;15.73;;;;;;;;;;6231345;23;20155;-90
2021/05/01 02:52:03;;;;;;;26.88;16.20;;;;;;;;;;6233204;23;20170;-92
2021/05/01 02:55:11;;;;;;;27.77;15.85;;;;;;;;;;6233893;22;20150;-91
2021/05/01 02:58:16;;;;;;;28.65;16.50;;;;;;;;;;6233710;22;20187;-91
2021/05/01 03:01:21;;;;;;;26.65;15.10;;;;;;;;;;6234606;23;20186;-92
2021/05/01 03:04:25;;;;;;;29.27;17.27;;;;;;;;;;6232889;23;20195;-90
2021/05/01 03:07:30;;;;;;;31.80;17.20;;;;;;;;;;6231787;23;20179;-90
2021/05/01 03:10:36;;;;;;;26.73;16.27;;;;;;;;;;6231094;22;20167;-91
2021/05/01 03:13:41;;;;;;;27.65;16.58;;;;;;;;;;6238909;23;20244;-90
2021/05/01 03:16:46;;;;;;;28.48;16.33;;;;;;;;;;6245860;23;20171;-91
2021/05/01 03:19:51;;;;;;;31.10;16.90;;;;;;;;;;6245406;23;20194;-89
2021/05/01 03:22:55;;;;;;;27.98;16.77;;;;;;;;;;6245622;22;20170;-91
2021/05/01 03:26:00;;;;;;;32.17;17.73;;;;;;;;;;6246474;22;20210;-91
2021/05/01 03:29:05;;;;;;;29.33;17.27;;;;;;;;;;6245868;23;20194;-91
2021/05/01 03:32:10;;;;;;;30.88;17.88;;;;;;;;;;6263241;22;20237;-91
2021/05/01 03:35:16;;;;;;;36.92;17.67;;;;;;;;;;6246018;22;20178;-91
2021/05/01 03:38:21;;;;;;;32.80;18.50;;;;;;;;;;6245817;23;20168;-90
2021/05/01 03:41:28;;;;;;;30.30;17.35;;;;;;;;;;6245522;23;20190;-90
2021/05/01 03:44:32;;;;;;;32.25;18.00;;;;;;;;;;6243962;23;20238;-92
2021/05/01 03:47:37;;;;;;;29.60;17.85;;;;;;;;;;6245290;23;20264;-92
2021/05/01 03:50:41;;;;;;;40.95;17.95;;;;;;;;;;6247162;22;20223;-94
2021/05/01 03:53:46;;;;;;;31.35;18.33;;;;;;;;;;6246855;23;20166;-92
2021/05/01 03:56:54;;;;;;;31.50;18.23;;;;;;;;;;6247070;23;20171;-91
2021/05/01 03:59:59;;;;;;;33.42;18.75;;;;;;;;;;6247441;23;20219;-92
2021/05/01 04:03:31;;;;;;;30.95;18.38;;;;;;;;;;6245918;23;20161;-92
2021/05/01 04:10:53;;;;;;;32.60;19.00;;;;;;;;;;6263596;23;20703;-92
2021/05/01 04:13:59;;;;;;;34.78;19.77;;;;;;;;;;6263396;23;20217;-93
2021/05/01 04:17:04;;;;;;;34.58;20.50;;;;;;;;;;6246991;22;20170;-94
2021/05/01 04:20:10;;;;;;;34.85;20.17;;;;;;;;;;6244615;23;20190;-91
2021/05/01 04:23:14;;;;;;;34.70;19.53;;;;;;;;;;6245496;23;20170;-93
2021/05/01 04:26:20;;;;;;;39.23;20.17;;;;;;;;;;6246083;23;20201;-93
2021/05/01 04:29:26;;;;;;;37.90;21.23;;;;;;;;;;6245906;23;20175;-92
2021/05/01 04:32:31;;;;;;;37.27;20.80;;;;;;;;;;6246041;22;20173;-93
2021/05/01 04:35:36;;;;;;;36.25;20.20;;;;;;;;;;6245045;23;20193;-91
2021/05/01 04:38:41;;;;;;;32.83;20.02;;;;;;;;;;6246830;23;20170;-94
2021/05/01 04:41:47;;;;;;;35.63;20.93;;;;;;;;;;6247182;23;20609;-94
2021/05/01 04:44:53;;;;;;;37.25;20.23;;;;;;;;;;6246073;23;20209;-92
2021/05/01 04:47:58;;;;;;;40.00;21.33;;;;;;;;;;6247268;23;20198;-93
2021/05/01 04:51:02;;;;;;;36.67;21.40;;;;;;;;;;6246415;23;20193;-91
2021/05/01 04:54:08;;;;;;;41.47;22.50;;;;;;;;;;6245866;23;20166;-91
2021/05/01 04:57:13;;;;;;;40.22;22.15;;;;;;;;;;6246935;23;20358;-92
2021/05/01 05:00:20;;;;;;;38.60;20.55;;;;;;;;;;6247189;23;20178;-92
2021/05/01 05:03:24;;;;;;;39.28;21.88;;;;;;;;;;6246523;23;20162;-91
2021/05/01 05:06:30;;;;;;;36.63;21.45;;;;;;;;;;6246138;22;20194;-91
2021/05/01 05:09:35;;;;;;;35.97;20.80;;;;;;;;;;6245811;22;20178;-92
2021/05/01 05:12:40;;;;;;;37.85;20.73;;;;;;;;;;6246784;23;20190;-93
2021/05/01 05:15:45;;;;;;;33.42;20.75;;;;;;;;;;6217292;23;20175;-91
2021/05/01 05:18:51;;;;;;;38.38;20.13;;;;;;;;;;6217172;23;20167;-92
2021/05/01 05:21:56;;;;;;;35.00;20.38;;;;;;;;;;6214612;22;20216;-92
2021/05/01 05:25:01;;;;;;;37.75;20.75;;;;;;;;;;6215707;22;20291;-92
2021/05/01 05:28:05;;;;;;;35.90;20.45;;;;;;;;;;6215637;23;20176;-91
2021/05/01 05:31:12;;;;;;;36.30;20.67;;;;;;;;;;6216237;23;20170;-91
2021/05/01 05:34:16;;;;;;;32.92;20.50;;;;;;;;;;6217179;23;20187;-91
2021/05/01 05:37:22;;;;;;;38.67;21.00;;;;;;;;;;6215746;23;20207;-91
2021/05/01 05:40:27;;;;;;;37.50;20.75;;;;;;;;;;6217342;23;20244;-91
2021/05/01 05:43:33;;;;;;;38.30;21.58;;;;;;;;;;6216726;23;20171;-92
2021/05/01 05:46:39;;;;;;;37.65;21.70;;;;;;;;;;6216586;23;20194;-92
2021/05/01 05:49:44;;;;;;;42.05;21.83;;;;;;;;;;6217043;23;20271;-92
2021/05/01 05:52:48;;;;;;;38.22;21.63;;;;;;;;;;6215775;23;20183;-91
2021/05/01 05:55:53;;;;;;;38.05;21.92;;;;;;;;;;6218670;23;20171;-91
2021/05/01 05:58:58;;;;;;;38.25;21.33;;;;;;;;;;6216336;22;20187;-92
2021/05/01 06:02:08;;;;;;;39.53;21.40;;;;;;;;;;6216324;23;20228;-91
2021/05/01 06:05:14;;;;;;;39.78;22.00;;;;;;;;;;6216104;23;20190;-92
2021/05/01 06:08:19;;;;;;;41.53;23.58;;;;;;;;;;6214411;23;20199;-92
2021/05/01 06:11:24;;;;;;;39.03;21.92;;;;;;;;;;6215169;22;20150;-90
2021/05/01 06:14:31;;;;;;;43.22;23.45;;;;;;;;;;6235372;22;20190;-90
2021/05/01 06:17:36;;;;;;;39.63;22.50;;;;;;;;;;6246929;23;20614;-91
2021/05/01 06:20:41;;;;;;;43.10;23.27;;;;;;;;;;6247293;23;20171;-91
2021/05/01 06:23:47;;;;;;;40.70;21.77;;;;;;;;;;6246980;22;20194;-92
2021/05/01 06:26:52;;;;;;;42.58;22.60;;;;;;;;;;6249006;22;20171;-90
2021/05/01 06:29:57;;;;;;;39.67;22.25;;;;;;;;;;6247067;23;20621;-91
2021/05/01 06:33:03;;;;;;;40.08;22.92;;;;;;;;;;6247416;22;20182;-91
2021/05/01 06:36:09;;;;;;;40.85;23.48;;;;;;;;;;6247524;22;20171;-92
2021/05/01 06:39:15;;;;;;;45.33;22.80;;;;;;;;;;6245953;22;20206;-92
2021/05/01 06:42:21;;;;;;;44.22;24.35;;;;;;;;;;6246493;22;20173;-91
2021/05/01 06:45:26;;;;;;;43.65;22.52;;;;;;;;;;6245873;22;20197;-91
2021/05/01 06:48:34;;;;;;;46.10;23.73;;;;;;;;;;6247222;23;20170;-92
2021/05/01 06:51:39;;;;;;;39.92;23.52;;;;;;;;;;6248224;22;20210;-91
2021/05/01 06:54:46;;;;;;;41.00;22.67;;;;;;;;;;6247946;22;20548;-91
2021/05/01 06:57:52;;;;;;;43.50;22.70;;;;;;;;;;6247423;23;20147;-91
2021/05/01 07:00:58;;;;;;;37.97;22.05;;;;;;;;;;6249055;22;20158;-93
2021/05/01 07:04:06;;;;;;;37.88;22.13;;;;;;;;;;6248621;22;20163;-91
2021/05/01 07:07:11;;;;;;;39.45;21.75;;;;;;;;;;6248703;22;20165;-91
2021/05/01 07:10:17;;;;;;;35.80;21.80;;;;;;;;;;6250154;22;20167;-90
2021/05/01 07:13:22;;;;;;;39.90;21.73;;;;;;;;;;6248581;22;20189;-93
2021/05/01 07:16:28;;;;;;;35.50;21.42;;;;;;;;;;6247590;22;20165;-89
2021/05/01 07:19:34;;;;;;;38.83;21.85;;;;;;;;;;6248173;22;20206;-92
2021/05/01 07:22:40;;;;;;;41.25;22.33;;;;;;;;;;6246813;23;20620;-92
2021/05/01 07:25:46;;;;;;;40.38;20.77;;;;;;;;;;6246925;22;20270;-94
2021/05/01 07:29:15;;;;;;;39.03;21.67;;;;;;;;;;6246956;23;20210;-90
2021/05/01 07:32:20;;;;;;;38.15;22.25;;;;;;;;;;6247111;23;20185;-93
2021/05/01 07:35:29;;;;;;;36.92;21.60;;;;;;;;;;6249248;22;20157;-90
2021/05/01 07:38:34;;;;;;;40.67;21.88;;;;;;;;;;6249187;23;20186;-93
2021/05/01 07:41:41;;;;;;;37.00;21.50;;;;;;;;;;6246616;23;20166;-89
2021/05/01 07:44:48;;;;;;;35.70;21.38;;;;;;;;;;6244862;23;20637;-91
2021/05/01 07:47:55;;;;;;;37.00;21.77;;;;;;;;;;6244364;23;20190;-90
2021/05/01 07:51:01;;;;;;;39.22;22.40;;;;;;;;;;6242886;22;20169;-91
2021/05/01 07:54:05;;;;;;;35.95;20.85;;;;;;;;;;6243174;23;20541;-92
2021/05/01 07:57:10;;;;;;;36.05;20.42;;;;;;;;;;6245563;22;20770;-93
2021/05/01 08:00:15;;;;;;;33.17;20.00;;;;;;;;;;6241304;23;20167;-92
2021/05/01 08:03:21;;;;;;;37.40;20.85;;;;;;;;;;6240606;23;20705;-93
2021/05/01 08:06:28;;;;;;;37.67;21.73;;;;;;;;;;6240943;22;20202;-91
2021/05/01 08:09:32;;;;;;;38.60;21.70;;;;;;;;;;6243001;23;20246;-91
2021/05/01 08:12:37;;;;;;;36.67;20.30;;;;;;;;;;6245047;22;20235;-92
2021/05/01 08:15:42;;;;;;;36.10;21.50;;;;;;;;;;6211452;23;20211;-91
2021/05/01 08:18:47;;;;;;;36.83;20.42;;;;;;;;;;6212297;23;20190;-90
2021/05/01 08:21:52;;;;;;;33.85;20.30;;;;;;;;;;6212537;23;20167;-91
2021/05/01 08:24:57;;;;;;;33.72;20.25;;;;;;;;;;6211695;23;20171;-91
2021/05/01 08:28:02;;;;;;;34.38;20.38;;;;;;;;;;6211282;23;20206;-88
2021/05/01 08:31:06;;;;;;;33.13;20.10;;;;;;;;;;6212237;23;20179;-91
2021/05/01 08:34:11;;;;;;;32.22;20.30;;;;;;;;;;6212684;23;20199;-89
2021/05/01 08:37:17;;;;;;;31.67;19.55;;;;;;;;;;6213391;23;20207;-91
2021/05/01 08:40:22;;;;;;;37.20;20.38;;;;;;;;;;6213761;23;20171;-90
2021/05/01 08:43:27;;;;;;;34.05;20.08;;;;;;;;;;6211191;23;20166;-87
2021/05/01 08:46:31;;;;;;;29.88;18.45;;;;;;;;;;6212166;23;20195;-90
2021/05/01 08:49:38;;;;;;;30.42;18.38;;;;;;;;;;6212631;23;20166;-91
2021/05/01 08:52:43;;;;;;;31.65;19.23;;;;;;;;;;6214047;22;20175;-94
2021/05/01 08:55:48;;;;;;;32.85;19.20;;;;;;;;;;6212971;23;20166;-92
2021/05/01 08:58:57;;;;;;;31.83;19.15;;;;;;;;;;6185404;23;20536;-91
2021/05/01 09:02:02;;;;;;;30.67;18.48;;;;;;;;;;6212759;23;20199;-92
2021/05/01 09:05:08;;;;;;;33.22;19.35;;;;;;;;;;6212964;23;20222;-90
2021/05/01 09:08:14;;;;;;;29.63;18.05;;;;;;;;;;6214078;23;20194;-91
2021/05/01 09:11:19;;;;;;;29.83;18.30;;;;;;;;;;6213402;22;20167;-92
2021/05/01 09:14:26;;;;;;;27.85;17.70;;;;;;;;;;6229617;22;20194;-90
2021/05/01 09:17:35;;;;;;;26.52;15.68;;;;;;;;;;6246980;22;20225;-91
2021/05/01 09:20:44;;;;;;;26.83;16.15;;;;;;;;;;6246631;23;20170;-92
2021/05/01 09:23:53;;;;;;;30.63;17.65;;;;;;;;;;6246175;22;20162;-92
2021/05/01 09:27:05;;;;;;;29.40;16.75;;;;;;;;;;6249245;23;20202;-91
2021/05/01 09:30:13;;;;;;;31.73;17.40;;;;;;;;;;6246277;22;20190;-92
2021/05/01 09:33:18;;;;;;;26.73;16.00;;;;;;;;;;6243657;22;20210;-92
2021/05/01 09:36:24;;;;;;;26.58;16.02;;;;;;;;;;6243516;22;20224;-92
2021/05/01 09:39:30;;;;;;;24.52;16.08;;;;;;;;;;6243177;22;20150;-91
2021/05/01 09:42:36;;;;;;;26.50;14.85;;;;;;;;;;6245724;23;20166;-92
2021/05/01 09:45:41;;;;;;;25.00;16.10;;;;;;;;;;6245406;23;20193;-90
2021/05/01 09:49:01;;;;;;;25.65;15.90;;;;;;;;;;6245815;23;20218;-90
2021/05/01 09:52:08;;;;;;;24.35;15.52;;;;;;;;;;6245297;23;20198;-92
2021/05/01 09:55:14;;;;;;;22.85;15.13;;;;;;;;;;6247221;23;20185;-90
2021/05/01 09:58:20;;;;;;;26.80;15.85;;;;;;;;;;6245116;23;20194;-89
2021/05/01 10:01:26;;;;;;;24.00;13.80;;;;;;;;;;6245530;23;20237;-89
2021/05/01 10:04:31;;;;;;;23.35;14.95;;;;;;;;;;6246751;23;20243;-91
2021/05/01 10:07:37;;;;;;;20.55;13.82;;;;;;;;;;6245330;23;20251;-92
2021/05/01 10:10:43;;;;;;;20.65;14.23;;;;;;;;;;6244471;23;20177;-90
2021/05/01 10:13:49;;;;;;;18.52;13.73;;;;;;;;;;6242494;23;20249;-92
2021/05/01 10:16:54;;;;;;;20.42;13.80;;;;;;;;;;6243709;23;20158;-91
2021/05/01 10:20:00;;;;;;;22.73;14.55;;;;;;;;;;6247410;23;20151;-90
2021/05/01 10:23:05;;;;;;;21.30;14.30;;;;;;;;;;6248578;23;20243;-90
2021/05/01 10:26:14;;;;;;;18.48;13.38;;;;;;;;;;6244915;23;20193;-90
2021/05/01 10:29:29;;;;;;;20.25;13.80;;;;;;;;;;6244498;23;20167;-89
2021/05/01 10:32:41;;;;;;;26.70;13.65;;;;;;;;;;6241916;23;20170;-91
2021/05/01 10:35:50;;;;;;;19.02;13.02;;;;;;;;;;6242515;23;20170;-90
2021/05/01 10:39:00;;;;;;;20.17;13.00;;;;;;;;;;6243228;23;20717;-92
2021/05/01 10:42:13;;;;;;;17.73;11.82;;;;;;;;;;6241735;22;20175;-92
2021/05/01 10:45:26;;;;;;;18.27;12.27;;;;;;;;;;6243205;23;20189;-91
2021/05/01 10:48:33;;;;;;;17.27;11.75;;;;;;;;;;6243721;23;20174;-90
2021/05/01 10:51:43;;;;;;;20.05;12.45;;;;;;;;;;6241719;23;20166;-90
2021/05/01 10:54:58;;;;;;;16.85;12.88;;;;;;;;;;6242065;23;20155;-92
2021/05/01 10:58:04;;;;;;;19.60;13.45;;;;;;;;;;6244503;23;20186;-92
2021/05/01 11:01:10;;;;;;;19.23;11.05;;;;;;;;;;6245279;23;20166;-91
2021/05/01 11:04:17;;;;;;;20.50;12.77;;;;;;;;;;6243742;23;20225;-90
2021/05/01 11:07:30;;;;;;;17.48;10.77;;;;;;;;;;6243858;23;20211;-92
2021/05/01 11:10:35;;;;;;;16.60;10.45;;;;;;;;;;6240868;22;20262;-90
2021/05/01 11:13:42;;;;;;;17.65;11.30;;;;;;;;;;6242687;23;20247;-92
2021/05/01 11:16:50;;;;;;;19.35;12.93;;;;;;;;;;6244025;23;20171;-90
2021/05/01 11:20:00;;;;;;;17.10;11.35;;;;;;;;;;6241283;23;20243;-91
2021/05/01 11:23:04;;;;;;;16.33;10.75;;;;;;;;;;6243096;23;20150;-90
2021/05/01 11:26:10;;;;;;;16.55;11.20;;;;;;;;;;6244057;22;20197;-90
2021/05/01 11:29:16;;;;;;;16.35;10.75;;;;;;;;;;6242957;23;20239;-90
2021/05/01 11:32:20;;;;;;;24.35;16.13;;;;;;;;;;6240248;23;20165;-91
2021/05/01 11:35:26;;;;;;;23.92;16.17;;;;;;;;;;6243814;23;20194;-89
2021/05/01 11:38:34;;;;;;;24.52;15.55;;;;;;;;;;6245748;23;20243;-92
2021/05/01 11:41:41;;;;;;;25.05;14.70;;;;;;;;;;6244431;22;20171;-90
2021/05/01 11:44:49;;;;;;;22.30;15.10;;;;;;;;;;6244288;23;20166;-90
2021/05/01 11:48:00;;;;;;;25.92;16.92;;;;;;;;;;6244107;22;20175;-87
2021/05/01 11:51:06;;;;;;;22.10;16.27;;;;;;;;;;6246227;23;20190;-92
2021/05/01 11:54:17;;;;;;;24.40;17.65;;;;;;;;;;6246492;23;20187;-91
2021/05/01 11:57:25;;;;;;;24.83;17.20;;;;;;;;;;6243638;22;20162;-90
2021/05/01 12:00:33;;;;;;;23.50;16.27;;;;;;;;;;6241906;22;20171;-91
2021/05/01 12:03:38;;;;;;;24.58;16.92;;;;;;;;;;6242511;23;20190;-91
2021/05/01 12:06:43;;;;;;;25.05;16.75;;;;;;;;;;6244929;23;20198;-91
2021/05/01 12:09:50;;;;;;;27.55;16.58;;;;;;;;;;6244415;23;20214;-91
2021/05/01 12:12:57;;;;;;;22.55;15.90;;;;;;;;;;6244146;23;20166;-90
2021/05/01 12:16:04;;;;;;;24.73;16.63;;;;;;;;;;6233031;23;20155;-91
2021/05/01 12:19:19;;;;;;;26.10;16.67;;;;;;;;;;6231581;22;20219;-89
2021/05/01 12:22:28;;;;;;;27.35;16.35;;;;;;;;;;6232096;23;20167;-92
2021/05/01 12:25:34;;;;;;;26.42;16.48;;;;;;;;;;6231164;23;20745;-90
2021/05/01 12:28:40;;;;;;;23.98;16.27;;;;;;;;;;6230568;23;20195;-90
2021/05/01 12:31:47;;;;;;;26.88;15.60;;;;;;;;;;6230928;23;20570;-93
2021/05/01 12:35:00;;;;;;;26.77;15.30;;;;;;;;;;6232988;22;20237;-90
2021/05/01 12:38:05;;;;;;;26.52;15.73;;;;;;;;;;6233535;23;20514;-90
2021/05/01 12:41:20;;;;;;;23.17;15.00;;;;;;;;;;6233563;23;20186;-90
2021/05/01 12:44:35;;;;;;;27.42;15.23;;;;;;;;;;6232755;22;20228;-91
2021/05/01 12:47:46;;;;;;;21.30;13.82;;;;;;;;;;6232645;23;20195;-90
2021/05/01 12:51:06;;;;;;;22.10;14.65;;;;;;;;;;6234755;22;20167;-90
2021/05/01 12:54:28;;;;;;;23.10;14.23;;;;;;;;;;6235576;22;20172;-88
2021/05/01 12:57:33;;;;;;;20.55;14.07;;;;;;;;;;6232889;23;20167;-93
2021/05/01 13:00:39;;;;;;;18.08;12.45;;;;;;;;;;6234053;23;20171;-91
2021/05/01 13:03:59;;;;;;;15.75;11.48;;;;;;;;;;6236994;22;20167;-89
2021/05/01 13:07:10;;;;;;;18.88;11.93;;;;;;;;;;6236294;23;20210;-90
2021/05/01 13:10:19;;;;;;;22.48;11.18;;;;;;;;;;6234797;22;20187;-91
2021/05/01 13:13:34;;;;;;;16.73;11.02;;;;;;;;;;6238192;23;20176;-91
2021/05/01 13:16:54;;;;;;;17.73;10.45;;;;;;;;;;6245859;23;20194;-92
2021/05/01 13:20:10;;;;;;;16.98;10.50;;;;;;;;;;6245454;23;20166;-91
2021/05/01 13:23:16;;;;;;;13.07;9.98;;;;;;;;;;6245184;23;20175;-91
2021/05/01 13:26:23;;;;;;;12.55;9.35;;;;;;;;;;6244829;23;20198;-92
2021/05/01 13:29:28;;;;;;;11.80;9.48;;;;;;;;;;6243784;23;20245;-91
2021/05/01 13:32:33;;;;;;;9.38;7.82;;;;;;;;;;6241202;23;20239;-91
2021/05/01 13:35:38;;;;;;;11.35;7.90;;;;;;;;;;6241136;23;20170;-91
2021/05/01 13:38:49;;;;;;;15.63;9.27;;;;;;;;;;6242616;23;20170;-91
2021/05/01 13:42:08;;;;;;;12.15;8.68;;;;;;;;;;6240435;23;20170;-91
2021/05/01 13:45:13;;;;;;;11.73;8.23;;;;;;;;;;6243651;23;20262;-90
2021/05/01 13:48:19;;;;;;;12.55;7.95;;;;;;;;;;6244110;23;20166;-91
2021/05/01 13:51:32;;;;;;;10.50;7.70;;;;;;;;;;6242775;23;20198;-89
2021/05/01 13:54:38;;;;;;;9.13;6.57;;;;;;;;;;6245103;23;20167;-90
2021/05/01 13:57:42;;;;;;;11.77;6.47;;;;;;;;;;6245981;23;20167;-91
2021/05/01 14:00:48;;;;;;;8.77;6.25;;;;;;;;;;6244886;22;20171;-92
2021/05/01 16:11:25;;;;;;;11.23;6.40;;;;;;;;;;6234719;22;20247;-90
2021/05/01 16:14:30;;;;;;;11.00;5.63;;;;;;;;;;6246268;23;20203;-89
2021/05/01 16:17:35;;;;;;;10.10;6.07;;;;;;;;;;6246737;23;20174;-90
2021/05/01 16:20:40;;;;;;;9.20;5.97;;;;;;;;;;6244552;23;20171;-88
2021/05/01 16:23:44;;;;;;;10.63;7.18;;;;;;;;;;6245807;22;20194;-90
2021/05/01 16:26:51;;;;;;;8.77;5.68;;;;;;;;;;6243411;23;20269;-92
2021/05/01 16:29:56;;;;;;;7.78;5.30;;;;;;;;;;6245473;23;20174;-89
2021/05/01 16:33:03;;;;;;;8.70;5.72;;;;;;;;;;6243286;23;20170;-90
2021/05/01 16:36:07;;;;;;;10.65;5.95;;;;;;;;;;6242140;23;20195;-89
2021/05/01 16:39:12;;;;;;;8.90;5.90;;;;;;;;;;6239771;23;20170;-91
2021/05/01 16:42:17;;;;;;;12.23;5.68;;;;;;;;;;6240678;23;20194;-90
2021/05/01 16:45:22;;;;;;;8.52;6.07;;;;;;;;;;6239451;23;20187;-90
2021/05/01 16:48:26;;;;;;;13.45;6.68;;;;;;;;;;6239465;23;20257;-91
2021/05/01 16:51:31;;;;;;;9.77;6.22;;;;;;;;;;6239969;23;20182;-89
2021/05/01 16:54:36;;;;;;;12.90;6.30;;;;;;;;;;6240335;23;20190;-91
2021/05/01 16:57:44;;;;;;;11.88;7.15;;;;;;;;;;6242555;23;20166;-90
2021/05/01 17:00:57;;;;;;;16.65;8.70;;;;;;;;;;6242366;23;20205;-93
2021/05/01 17:04:03;;;;;;;20.67;10.30;;;;;;;;;;6243569;22;20174;-91
2021/05/01 17:07:08;;;;;;;17.65;9.05;;;;;;;;;;6242153;23;20214;-88
2021/05/01 17:10:13;;;;;;;16.80;7.93;;;;;;;;;;6244920;23;20565;-90
2021/05/01 17:13:19;;;;;;;10.65;7.13;;;;;;;;;;6241558;22;20166;-90
2021/05/01 17:16:24;;;;;;;12.95;7.35;;;;;;;;;;6241501;23;20565;-92
2021/05/01 17:19:30;;;;;;;13.32;7.63;;;;;;;;;;6242963;23;20173;-90
2021/05/01 17:22:34;;;;;;;11.30;7.53;;;;;;;;;;6242825;22;20186;-89
2021/05/01 17:25:40;;;;;;;12.35;7.82;;;;;;;;;;6242103;22;20263;-90
2021/05/01 17:28:46;;;;;;;14.52;8.32;;;;;;;;;;6245737;23;20189;-91
2021/05/01 17:31:52;;;;;;;11.48;8.15;;;;;;;;;;6241377;23;20198;-89
2021/05/01 17:34:57;;;;;;;15.85;8.45;;;;;;;;;;6243777;23;20242;-90
2021/05/01 17:38:02;;;;;;;11.82;7.80;;;;;;;;;;6243166;23;20190;-88
2021/05/01 17:41:06;;;;;;;12.63;8.43;;;;;;;;;;6244543;23;20214;-90
2021/05/01 17:44:12;;;;;;;11.95;7.85;;;;;;;;;;6244944;23;20379;-90
2021/05/01 17:47:17;;;;;;;16.02;8.48;;;;;;;;;;6243582;23;20194;-87
2021/05/01 17:50:22;;;;;;;15.20;8.60;;;;;;;;;;6244764;23;20170;-89
2021/05/01 17:53:27;;;;;;;13.93;9.05;;;;;;;;;;6245665;23;20182;-89
2021/05/01 17:56:31;;;;;;;16.63;9.95;;;;;;;;;;6244988;22;20210;-92
2021/05/01 17:59:37;;;;;;;15.13;9.50;;;;;;;;;;6244857;23;20193;-90
2021/05/01 18:02:42;;;;;;;15.27;9.80;;;;;;;;;;6240850;23;20656;-91
2021/05/01 18:05:47;;;;;;;15.23;9.77;;;;;;;;;;6242188;23;20190;-89
2021/05/01 18:08:52;;;;;;;18.73;10.15;;;;;;;;;;6240771;23;20166;-90
2021/05/01 18:11:57;;;;;;;15.25;10.13;;;;;;;;;;6228929;23;20227;-90
2021/05/01 18:15:04;;;;;;;16.52;10.68;;;;;;;;;;6229634;23;20171;-91
2021/05/01 18:18:08;;;;;;;15.95;10.20;;;;;;;;;;6230145;23;20531;-91
2021/05/01 18:21:13;;;;;;;21.73;11.05;;;;;;;;;;6228990;23;20171;-90
2021/05/01 18:24:19;;;;;;;18.27;10.73;;;;;;;;;;6227821;23;20170;-91
2021/05/01 18:27:24;;;;;;;27.30;18.58;;;;;;;;;;6228146;23;20267;-90
2021/05/01 18:30:31;;;;;;;19.20;11.00;;;;;;;;;;6229387;22;20171;-89
2021/05/01 18:33:36;;;;;;;16.38;11.40;;;;;;;;;;6229695;23;20210;-89
2021/05/01 18:36:41;;;;;;;16.55;11.00;;;;;;;;;;6230205;22;20172;-88
2021/05/01 18:39:46;;;;;;;19.25;12.05;;;;;;;;;;6228963;23;20167;-90
2021/05/01 18:42:51;;;;;;;19.65;11.85;;;;;;;;;;6229821;23;20167;-93
2021/05/01 18:45:56;;;;;;;22.13;12.10;;;;;;;;;;6227954;23;20218;-89
2021/05/01 18:49:01;;;;;;;20.73;13.40;;;;;;;;;;6227570;23;20298;-90
2021/05/01 18:52:06;;;;;;;22.60;13.57;;;;;;;;;;6227052;23;20167;-93
2021/05/01 18:55:14;;;;;;;24.90;15.13;;;;;;;;;;6227500;23;20227;-89
2021/05/01 18:58:19;;;;;;;24.73;15.45;;;;;;;;;;6229193;23;20242;-90
2021/05/01 19:01:24;;;;;;;25.10;15.57;;;;;;;;;;6232790;23;20183;-90
2021/05/01 19:04:31;;;;;;;31.08;19.13;;;;;;;;;;6231150;23;20206;-89
2021/05/01 19:07:35;;;;;;;28.17;16.85;;;;;;;;;;6231735;23;20195;-91
2021/05/01 19:10:40;;;;;;;25.98;15.80;;;;;;;;;;6243909;23;20230;-90
2021/05/01 19:13:48;;;;;;;30.17;17.23;;;;;;;;;;6244421;23;20170;-89
2021/05/01 19:16:53;;;;;;;26.83;16.40;;;;;;;;;;6243326;23;20197;-91
2021/05/01 19:19:59;;;;;;;28.75;15.88;;;;;;;;;;6245012;23;20225;-91
2021/05/01 19:23:04;;;;;;;28.70;17.67;;;;;;;;;;6240117;23;20194;-91
2021/05/01 19:26:08;;;;;;;31.08;18.05;;;;;;;;;;6240084;23;20194;-91
2021/05/01 19:29:13;;;;;;;33.30;19.23;;;;;;;;;;6241693;23;20190;-88
2021/05/01 19:32:19;;;;;;;30.27;18.02;;;;;;;;;;6240684;23;20166;-90
2021/05/01 19:35:24;;;;;;;28.17;17.77;;;;;;;;;;6239842;23;20558;-91
2021/05/01 19:38:30;;;;;;;30.77;17.92;;;;;;;;;;6241345;23;20177;-89
2021/05/01 19:41:38;;;;;;;34.03;20.13;;;;;;;;;;6242342;22;20487;-88
2021/05/01 19:44:43;;;;;;;33.95;19.73;;;;;;;;;;6240993;23;20269;-88
2021/05/01 19:47:49;;;;;;;32.88;19.35;;;;;;;;;;6242463;23;20210;-89
2021/05/01 19:50:54;;;;;;;31.27;19.58;;;;;;;;;;6242188;23;20182;-88
2021/05/01 19:53:59;;;;;;;36.25;19.15;;;;;;;;;;6242115;23;20169;-91
2021/05/01 19:57:03;;;;;;;32.38;19.33;;;;;;;;;;6243760;22;20183;-90
2021/05/01 20:00:10;;;;;;;32.25;19.83;;;;;;;;;;6242335;22;20167;-88
2021/05/01 20:03:17;;;;;;;32.70;19.92;;;;;;;;;;6242438;23;20173;-89
2021/05/01 20:06:23;;;;;;;33.03;20.33;;;;;;;;;;6243368;23;20190;-88
2021/05/01 20:09:27;;;;;;;33.72;20.42;;;;;;;;;;6243637;23;20210;-92
2021/05/01 20:12:33;;;;;;;34.97;19.80;;;;;;;;;;6212152;22;20162;-90
2021/05/01 20:15:37;;;;;;;33.90;19.33;;;;;;;;;;6210285;23;20167;-87
2021/05/01 20:18:43;;;;;;;33.58;20.70;;;;;;;;;;6210352;23;20167;-89
2021/05/01 20:21:47;;;;;;;32.97;20.40;;;;;;;;;;6210417;23;20174;-90